New York, New York
Current Conditions -  °F | °C
As of 10:24 AM on Monday 24 Nov 2014 (Local Time) from KNYC Reporting Station
Overcast Overcast  
Wind Chill: 64°   Ceiling: 5000
Heat Index: 64°   Visibility: 9mi
Dew Point: 59°   Wind: 5mph
Humidity: 84%   Direction: NA
Pressure: 29.7"   Gusts: NA
Location:  40.71°N, 74.01°W
Report Text: KNYC 241524Z AUTO VRB04KT 9SM SCT014 SCT020 OVC050 18/15 A2970 RMK AO2 T01780150 $
Loading
Personal Weather Stations






























Interactive Weather Map New forecast layout! Learn more

10-Day Weather Forecast

Advertisements
Track Severe Weather on mobile